sensor_id;sensor_type;location;lat;lon;timestamp;P1;durP1;ratioP1;P2;durP2;ratioP2
35969;SDS011;22448;51.298;6.430;2023-02-15T00:01:40;65.55;;;34.25;;
35969;SDS011;22448;51.298;6.430;2023-02-15T00:04:08;73.55;;;35.75;;
35969;SDS011;22448;51.298;6.430;2023-02-15T00:06:35;74.50;;;36.13;;
35969;SDS011;22448;51.298;6.430;2023-02-15T00:09:02;76.43;;;36.50;;
35969;SDS011;22448;51.298;6.430;2023-02-15T00:11:30;73.15;;;37.78;;
35969;SDS011;22448;51.298;6.430;2023-02-15T00:14:07;74.53;;;35.40;;
35969;SDS011;22448;51.298;6.430;2023-02-15T00:16:45;75.78;;;36.35;;
35969;SDS011;22448;51.298;6.430;2023-02-15T00:19:14;73.07;;;37.20;;
35969;SDS011;22448;51.298;6.430;2023-02-15T00:21:42;75.97;;;38.42;;
35969;SDS011;22448;51.298;6.430;2023-02-15T00:24:10;75.35;;;38.67;;
35969;SDS011;22448;51.298;6.430;2023-02-15T00:26:39;79.35;;;38.55;;
35969;SDS011;22448;51.298;6.430;2023-02-15T00:29:07;83.32;;;37.42;;
35969;SDS011;22448;51.298;6.430;2023-02-15T00:31:35;86.32;;;39.83;;
35969;SDS011;22448;51.298;6.430;2023-02-15T00:34:06;78.53;;;37.40;;
35969;SDS011;22448;51.298;6.430;2023-02-15T00:36:37;77.72;;;37.60;;
35969;SDS011;22448;51.298;6.430;2023-02-15T00:39:05;79.00;;;38.53;;
35969;SDS011;22448;51.298;6.430;2023-02-15T00:41:34;84.20;;;38.50;;
35969;SDS011;22448;51.298;6.430;2023-02-15T00:44:02;82.05;;;40.03;;
35969;SDS011;22448;51.298;6.430;2023-02-15T00:46:30;79.88;;;38.75;;
35969;SDS011;22448;51.298;6.430;2023-02-15T00:48:57;77.85;;;37.88;;
35969;SDS011;22448;51.298;6.430;2023-02-15T00:51:25;78.55;;;39.00;;
35969;SDS011;22448;51.298;6.430;2023-02-15T00:53:52;77.35;;;39.10;;
35969;SDS011;22448;51.298;6.430;2023-02-15T00:56:19;84.00;;;38.75;;
35969;SDS011;22448;51.298;6.430;2023-02-15T00:58:46;78.30;;;38.90;;
35969;SDS011;22448;51.298;6.430;2023-02-15T01:01:15;91.50;;;40.88;;
35969;SDS011;22448;51.298;6.430;2023-02-15T01:03:44;81.88;;;39.50;;
35969;SDS011;22448;51.298;6.430;2023-02-15T01:06:14;86.78;;;41.28;;
35969;SDS011;22448;51.298;6.430;2023-02-15T01:08:42;94.10;;;41.45;;
35969;SDS011;22448;51.298;6.430;2023-02-15T01:11:15;85.93;;;39.45;;
35969;SDS011;22448;51.298;6.430;2023-02-15T01:13:50;83.00;;;39.58;;
35969;SDS011;22448;51.298;6.430;2023-02-15T01:16:19;78.28;;;39.20;;
35969;SDS011;22448;51.298;6.430;2023-02-15T01:18:46;87.18;;;41.53;;
35969;SDS011;22448;51.298;6.430;2023-02-15T01:21:15;89.55;;;41.17;;
35969;SDS011;22448;51.298;6.430;2023-02-15T01:23:44;82.85;;;40.92;;
35969;SDS011;22448;51.298;6.430;2023-02-15T01:26:11;82.95;;;40.53;;
35969;SDS011;22448;51.298;6.430;2023-02-15T01:28:39;82.47;;;40.20;;
35969;SDS011;22448;51.298;6.430;2023-02-15T01:31:07;87.18;;;41.47;;
35969;SDS011;22448;51.298;6.430;2023-02-15T01:33:36;90.75;;;42.67;;
35969;SDS011;22448;51.298;6.430;2023-02-15T01:36:04;87.95;;;40.90;;
35969;SDS011;22448;51.298;6.430;2023-02-15T01:38:32;85.65;;;42.03;;
35969;SDS011;22448;51.298;6.430;2023-02-15T01:40:59;92.07;;;43.35;;
35969;SDS011;22448;51.298;6.430;2023-02-15T01:43:52;85.40;;;40.92;;
35969;SDS011;22448;51.298;6.430;2023-02-15T01:49:03;91.22;;;41.45;;
35969;SDS011;22448;51.298;6.430;2023-02-15T01:51:35;86.47;;;41.95;;
35969;SDS011;22448;51.298;6.430;2023-02-15T01:54:23;89.13;;;41.92;;
35969;SDS011;22448;51.298;6.430;2023-02-15T01:56:55;87.20;;;43.08;;
35969;SDS011;22448;51.298;6.430;2023-02-15T01:59:30;90.35;;;42.28;;
35969;SDS011;22448;51.298;6.430;2023-02-15T02:02:00;88.40;;;42.00;;
35969;SDS011;22448;51.298;6.430;2023-02-15T02:04:35;94.93;;;43.40;;
35969;SDS011;22448;51.298;6.430;2023-02-15T02:07:08;88.22;;;41.40;;
35969;SDS011;22448;51.298;6.430;2023-02-15T02:09:37;92.57;;;43.05;;
35969;SDS011;22448;51.298;6.430;2023-02-15T02:12:04;93.70;;;42.13;;
35969;SDS011;22448;51.298;6.430;2023-02-15T02:14:32;85.40;;;41.45;;
35969;SDS011;22448;51.298;6.430;2023-02-15T02:17:18;96.28;;;43.28;;
35969;SDS011;22448;51.298;6.430;2023-02-15T02:25:12;92.28;;;43.38;;
35969;SDS011;22448;51.298;6.430;2023-02-15T02:27:56;94.07;;;42.65;;
35969;SDS011;22448;51.298;6.430;2023-02-15T02:33:49;93.22;;;42.13;;
35969;SDS011;22448;51.298;6.430;2023-02-15T02:37:35;94.45;;;44.50;;
35969;SDS011;22448;51.298;6.430;2023-02-15T02:39:54;94.70;;;45.15;;
35969;SDS011;22448;51.298;6.430;2023-02-15T02:45:40;99.65;;;45.00;;
35969;SDS011;22448;51.298;6.430;2023-02-15T02:48:15;96.53;;;42.90;;
35969;SDS011;22448;51.298;6.430;2023-02-15T02:50:48;102.07;;;45.22;;
35969;SDS011;22448;51.298;6.430;2023-02-15T02:53:15;93.40;;;43.10;;
35969;SDS011;22448;51.298;6.430;2023-02-15T02:55:46;94.47;;;43.35;;
35969;SDS011;22448;51.298;6.430;2023-02-15T02:58:20;99.10;;;45.10;;
35969;SDS011;22448;51.298;6.430;2023-02-15T03:01:05;94.65;;;42.00;;
35969;SDS011;22448;51.298;6.430;2023-02-15T03:03:56;104.43;;;45.22;;
35969;SDS011;22448;51.298;6.430;2023-02-15T03:06:39;100.13;;;48.17;;
35969;SDS011;22448;51.298;6.430;2023-02-15T03:09:17;107.47;;;47.53;;
35969;SDS011;22448;51.298;6.430;2023-02-15T03:11:48;102.00;;;45.00;;
35969;SDS011;22448;51.298;6.430;2023-02-15T03:14:16;107.63;;;48.30;;
35969;SDS011;22448;51.298;6.430;2023-02-15T03:16:46;97.07;;;43.45;;
35969;SDS011;22448;51.298;6.430;2023-02-15T03:19:16;96.82;;;46.08;;
35969;SDS011;22448;51.298;6.430;2023-02-15T03:21:47;99.90;;;43.83;;
35969;SDS011;22448;51.298;6.430;2023-02-15T03:24:25;96.00;;;44.38;;
35969;SDS011;22448;51.298;6.430;2023-02-15T03:27:00;103.63;;;45.22;;
35969;SDS011;22448;51.298;6.430;2023-02-15T03:29:33;103.97;;;44.15;;
35969;SDS011;22448;51.298;6.430;2023-02-15T03:32:03;103.47;;;45.28;;
35969;SDS011;22448;51.298;6.430;2023-02-15T03:34:33;105.40;;;46.83;;
35969;SDS011;22448;51.298;6.430;2023-02-15T03:37:11;98.75;;;44.70;;
35969;SDS011;22448;51.298;6.430;2023-02-15T03:40:02;101.07;;;45.47;;
35969;SDS011;22448;51.298;6.430;2023-02-15T03:43:32;105.50;;;46.67;;
35969;SDS011;22448;51.298;6.430;2023-02-15T03:46:06;94.80;;;43.83;;
35969;SDS011;22448;51.298;6.430;2023-02-15T03:48:43;105.60;;;46.78;;
35969;SDS011;22448;51.298;6.430;2023-02-15T03:54:08;106.10;;;44.75;;
35969;SDS011;22448;51.298;6.430;2023-02-15T03:56:40;107.82;;;46.33;;
35969;SDS011;22448;51.298;6.430;2023-02-15T03:59:08;100.70;;;44.75;;
35969;SDS011;22448;51.298;6.430;2023-02-15T04:05:00;101.90;;;44.00;;
35969;SDS011;22448;51.298;6.430;2023-02-15T04:07:27;99.95;;;46.30;;
35969;SDS011;22448;51.298;6.430;2023-02-15T04:09:54;102.93;;;45.65;;
35969;SDS011;22448;51.298;6.430;2023-02-15T04:12:40;104.88;;;44.90;;
35969;SDS011;22448;51.298;6.430;2023-02-15T04:15:08;101.75;;;45.65;;
35969;SDS011;22448;51.298;6.430;2023-02-15T04:17:57;107.50;;;44.47;;
35969;SDS011;22448;51.298;6.430;2023-02-15T04:20:24;102.57;;;44.70;;
35969;SDS011;22448;51.298;6.430;2023-02-15T04:23:10;98.47;;;44.63;;
35969;SDS011;22448;51.298;6.430;2023-02-15T04:25:55;98.05;;;44.30;;
35969;SDS011;22448;51.298;6.430;2023-02-15T04:28:22;104.30;;;45.53;;
35969;SDS011;22448;51.298;6.430;2023-02-15T04:30:49;100.85;;;43.25;;
35969;SDS011;22448;51.298;6.430;2023-02-15T04:33:16;106.68;;;45.90;;
35969;SDS011;22448;51.298;6.430;2023-02-15T04:35:43;112.88;;;47.08;;
35969;SDS011;22448;51.298;6.430;2023-02-15T04:38:11;106.50;;;46.63;;
35969;SDS011;22448;51.298;6.430;2023-02-15T04:40:38;108.28;;;46.60;;
35969;SDS011;22448;51.298;6.430;2023-02-15T04:43:05;102.50;;;46.60;;
35969;SDS011;22448;51.298;6.430;2023-02-15T04:45:32;104.50;;;44.83;;
35969;SDS011;22448;51.298;6.430;2023-02-15T04:47:59;109.03;;;44.03;;
35969;SDS011;22448;51.298;6.430;2023-02-15T04:50:26;112.10;;;47.97;;
35969;SDS011;22448;51.298;6.430;2023-02-15T04:52:53;111.10;;;45.88;;
35969;SDS011;22448;51.298;6.430;2023-02-15T04:55:19;100.43;;;44.45;;
35969;SDS011;22448;51.298;6.430;2023-02-15T04:57:46;108.10;;;45.83;;
35969;SDS011;22448;51.298;6.430;2023-02-15T05:00:14;107.82;;;46.47;;
35969;SDS011;22448;51.298;6.430;2023-02-15T05:02:41;114.70;;;46.28;;
35969;SDS011;22448;51.298;6.430;2023-02-15T05:05:08;107.15;;;45.53;;
35969;SDS011;22448;51.298;6.430;2023-02-15T05:07:35;102.38;;;44.05;;
35969;SDS011;22448;51.298;6.430;2023-02-15T05:10:02;102.30;;;44.08;;
35969;SDS011;22448;51.298;6.430;2023-02-15T05:12:30;106.20;;;44.28;;
35969;SDS011;22448;51.298;6.430;2023-02-15T05:14:57;103.15;;;42.60;;
35969;SDS011;22448;51.298;6.430;2023-02-15T05:17:24;99.85;;;43.22;;
35969;SDS011;22448;51.298;6.430;2023-02-15T05:19:51;103.65;;;44.28;;
35969;SDS011;22448;51.298;6.430;2023-02-15T05:22:17;104.53;;;43.10;;
35969;SDS011;22448;51.298;6.430;2023-02-15T05:24:44;103.68;;;44.42;;
35969;SDS011;22448;51.298;6.430;2023-02-15T05:27:30;99.60;;;44.15;;
35969;SDS011;22448;51.298;6.430;2023-02-15T05:30:16;105.97;;;43.72;;
35969;SDS011;22448;51.298;6.430;2023-02-15T05:32:43;107.15;;;43.47;;
35969;SDS011;22448;51.298;6.430;2023-02-15T05:35:14;104.95;;;43.40;;
35969;SDS011;22448;51.298;6.430;2023-02-15T05:37:41;111.45;;;44.53;;
35969;SDS011;22448;51.298;6.430;2023-02-15T05:40:09;98.53;;;41.17;;
35969;SDS011;22448;51.298;6.430;2023-02-15T05:42:36;105.20;;;44.03;;
35969;SDS011;22448;51.298;6.430;2023-02-15T05:45:03;99.57;;;42.30;;
35969;SDS011;22448;51.298;6.430;2023-02-15T05:47:31;101.30;;;42.03;;
35969;SDS011;22448;51.298;6.430;2023-02-15T05:49:58;98.75;;;42.65;;
35969;SDS011;22448;51.298;6.430;2023-02-15T05:52:25;107.85;;;42.58;;
35969;SDS011;22448;51.298;6.430;2023-02-15T05:54:52;95.95;;;41.90;;
35969;SDS011;22448;51.298;6.430;2023-02-15T05:57:20;98.82;;;40.97;;
35969;SDS011;22448;51.298;6.430;2023-02-15T05:59:47;104.72;;;42.70;;
35969;SDS011;22448;51.298;6.430;2023-02-15T06:02:14;102.40;;;43.10;;
35969;SDS011;22448;51.298;6.430;2023-02-15T06:04:41;101.88;;;42.45;;
35969;SDS011;22448;51.298;6.430;2023-02-15T06:07:08;101.53;;;41.97;;
35969;SDS011;22448;51.298;6.430;2023-02-15T06:09:35;103.90;;;43.63;;
35969;SDS011;22448;51.298;6.430;2023-02-15T06:12:02;111.95;;;44.08;;
35969;SDS011;22448;51.298;6.430;2023-02-15T06:14:29;107.75;;;42.75;;
35969;SDS011;22448;51.298;6.430;2023-02-15T06:16:56;111.28;;;44.33;;
35969;SDS011;22448;51.298;6.430;2023-02-15T06:19:23;107.35;;;46.53;;
35969;SDS011;22448;51.298;6.430;2023-02-15T06:21:50;111.38;;;44.95;;
35969;SDS011;22448;51.298;6.430;2023-02-15T06:24:17;113.07;;;44.78;;
35969;SDS011;22448;51.298;6.430;2023-02-15T06:26:43;109.25;;;43.92;;
35969;SDS011;22448;51.298;6.430;2023-02-15T06:29:10;113.53;;;45.05;;
35969;SDS011;22448;51.298;6.430;2023-02-15T06:31:37;104.07;;;42.50;;
35969;SDS011;22448;51.298;6.430;2023-02-15T06:34:04;104.00;;;43.25;;
35969;SDS011;22448;51.298;6.430;2023-02-15T06:36:32;112.72;;;43.85;;
35969;SDS011;22448;51.298;6.430;2023-02-15T06:38:59;115.70;;;43.72;;
35969;SDS011;22448;51.298;6.430;2023-02-15T06:41:26;103.07;;;43.15;;
35969;SDS011;22448;51.298;6.430;2023-02-15T06:43:53;100.07;;;41.92;;
35969;SDS011;22448;51.298;6.430;2023-02-15T06:46:20;104.78;;;41.85;;
35969;SDS011;22448;51.298;6.430;2023-02-15T06:48:47;111.57;;;43.28;;
35969;SDS011;22448;51.298;6.430;2023-02-15T06:51:14;107.05;;;44.45;;
35969;SDS011;22448;51.298;6.430;2023-02-15T06:53:41;109.07;;;42.40;;
35969;SDS011;22448;51.298;6.430;2023-02-15T06:56:09;106.43;;;42.78;;
35969;SDS011;22448;51.298;6.430;2023-02-15T06:58:37;99.88;;;42.05;;
35969;SDS011;22448;51.298;6.430;2023-02-15T07:01:06;96.57;;;41.22;;
35969;SDS011;22448;51.298;6.430;2023-02-15T07:03:33;105.65;;;43.28;;
35969;SDS011;22448;51.298;6.430;2023-02-15T07:06:01;106.50;;;42.05;;
35969;SDS011;22448;51.298;6.430;2023-02-15T07:08:32;103.50;;;42.63;;
35969;SDS011;22448;51.298;6.430;2023-02-15T07:10:59;95.88;;;40.47;;
35969;SDS011;22448;51.298;6.430;2023-02-15T07:13:46;101.75;;;41.00;;
35969;SDS011;22448;51.298;6.430;2023-02-15T07:16:13;102.10;;;41.22;;
35969;SDS011;22448;51.298;6.430;2023-02-15T07:18:40;101.35;;;41.47;;
35969;SDS011;22448;51.298;6.430;2023-02-15T07:21:07;100.60;;;42.45;;
35969;SDS011;22448;51.298;6.430;2023-02-15T07:23:35;93.63;;;40.78;;
35969;SDS011;22448;51.298;6.430;2023-02-15T07:26:02;92.43;;;41.33;;
35969;SDS011;22448;51.298;6.430;2023-02-15T07:28:30;90.95;;;39.42;;
35969;SDS011;22448;51.298;6.430;2023-02-15T07:30:58;103.68;;;41.97;;
35969;SDS011;22448;51.298;6.430;2023-02-15T07:33:30;92.07;;;38.63;;
35969;SDS011;22448;51.298;6.430;2023-02-15T07:35:59;101.18;;;42.00;;
35969;SDS011;22448;51.298;6.430;2023-02-15T07:38:33;91.85;;;39.20;;
35969;SDS011;22448;51.298;6.430;2023-02-15T07:41:02;86.35;;;37.65;;
35969;SDS011;22448;51.298;6.430;2023-02-15T07:43:32;86.72;;;37.50;;
35969;SDS011;22448;51.298;6.430;2023-02-15T07:46:01;81.80;;;38.40;;
35969;SDS011;22448;51.298;6.430;2023-02-15T07:48:30;90.47;;;39.00;;
35969;SDS011;22448;51.298;6.430;2023-02-15T07:50:58;87.53;;;38.33;;
35969;SDS011;22448;51.298;6.430;2023-02-15T07:53:26;82.13;;;36.33;;
35969;SDS011;22448;51.298;6.430;2023-02-15T07:55:57;78.20;;;36.28;;
35969;SDS011;22448;51.298;6.430;2023-02-15T07:58:29;77.05;;;37.10;;
35969;SDS011;22448;51.298;6.430;2023-02-15T08:01:14;69.43;;;34.38;;
35969;SDS011;22448;51.298;6.430;2023-02-15T08:03:41;72.53;;;33.75;;
35969;SDS011;22448;51.298;6.430;2023-02-15T08:06:08;67.60;;;32.10;;
35969;SDS011;22448;51.298;6.430;2023-02-15T08:08:37;65.38;;;33.78;;
35969;SDS011;22448;51.298;6.430;2023-02-15T08:11:20;64.10;;;31.92;;
35969;SDS011;22448;51.298;6.430;2023-02-15T08:16:39;60.90;;;30.23;;
35969;SDS011;22448;51.298;6.430;2023-02-15T08:19:10;62.05;;;31.20;;
35969;SDS011;22448;51.298;6.430;2023-02-15T08:21:41;57.30;;;28.98;;
35969;SDS011;22448;51.298;6.430;2023-02-15T08:24:10;57.08;;;29.60;;
35969;SDS011;22448;51.298;6.430;2023-02-15T08:26:38;52.58;;;28.17;;
35969;SDS011;22448;51.298;6.430;2023-02-15T08:29:08;51.95;;;28.55;;
35969;SDS011;22448;51.298;6.430;2023-02-15T08:31:35;50.88;;;27.60;;
35969;SDS011;22448;51.298;6.430;2023-02-15T08:34:07;50.85;;;27.58;;
35969;SDS011;22448;51.298;6.430;2023-02-15T08:36:35;51.95;;;28.17;;
35969;SDS011;22448;51.298;6.430;2023-02-15T08:39:03;53.78;;;27.50;;
35969;SDS011;22448;51.298;6.430;2023-02-15T08:41:33;45.20;;;26.20;;
35969;SDS011;22448;51.298;6.430;2023-02-15T08:44:03;47.17;;;25.65;;
35969;SDS011;22448;51.298;6.430;2023-02-15T08:46:32;48.45;;;26.05;;
35969;SDS011;22448;51.298;6.430;2023-02-15T08:49:02;46.40;;;25.95;;
35969;SDS011;22448;51.298;6.430;2023-02-15T08:51:30;43.15;;;24.92;;
35969;SDS011;22448;51.298;6.430;2023-02-15T08:54:00;42.67;;;24.15;;
35969;SDS011;22448;51.298;6.430;2023-02-15T08:56:31;50.80;;;25.25;;
35969;SDS011;22448;51.298;6.430;2023-02-15T08:59:00;45.28;;;25.88;;
35969;SDS011;22448;51.298;6.430;2023-02-15T09:01:28;48.67;;;26.42;;
35969;SDS011;22448;51.298;6.430;2023-02-15T09:03:58;47.95;;;25.60;;
35969;SDS011;22448;51.298;6.430;2023-02-15T09:06:27;50.00;;;26.30;;
35969;SDS011;22448;51.298;6.430;2023-02-15T09:08:54;49.47;;;26.50;;
35969;SDS011;22448;51.298;6.430;2023-02-15T09:11:23;49.03;;;26.63;;
35969;SDS011;22448;51.298;6.430;2023-02-15T09:14:01;49.97;;;27.02;;
35969;SDS011;22448;51.298;6.430;2023-02-15T09:16:31;51.20;;;27.75;;
35969;SDS011;22448;51.298;6.430;2023-02-15T09:18:59;48.88;;;27.75;;
35969;SDS011;22448;51.298;6.430;2023-02-15T09:21:31;47.28;;;26.33;;
35969;SDS011;22448;51.298;6.430;2023-02-15T09:24:00;52.58;;;27.80;;
35969;SDS011;22448;51.298;6.430;2023-02-15T09:26:30;50.95;;;27.60;;
35969;SDS011;22448;51.298;6.430;2023-02-15T09:29:00;51.83;;;26.73;;
35969;SDS011;22448;51.298;6.430;2023-02-15T09:31:30;51.85;;;27.20;;
35969;SDS011;22448;51.298;6.430;2023-02-15T09:34:05;49.72;;;26.20;;
35969;SDS011;22448;51.298;6.430;2023-02-15T09:36:33;50.30;;;26.65;;
35969;SDS011;22448;51.298;6.430;2023-02-15T09:39:09;51.08;;;27.15;;
35969;SDS011;22448;51.298;6.430;2023-02-15T09:47:23;49.03;;;26.75;;
35969;SDS011;22448;51.298;6.430;2023-02-15T09:50:20;52.58;;;26.80;;
35969;SDS011;22448;51.298;6.430;2023-02-15T10:05:08;46.15;;;26.08;;
35969;SDS011;22448;51.298;6.430;2023-02-15T10:16:23;50.22;;;27.15;;
35969;SDS011;22448;51.298;6.430;2023-02-15T10:19:07;45.72;;;25.92;;
35969;SDS011;22448;51.298;6.430;2023-02-15T10:21:52;43.97;;;25.58;;
35969;SDS011;22448;51.298;6.430;2023-02-15T10:27:13;42.95;;;24.65;;
35969;SDS011;22448;51.298;6.430;2023-02-15T10:33:00;46.03;;;25.00;;
35969;SDS011;22448;51.298;6.430;2023-02-15T10:41:36;42.75;;;26.13;;
35969;SDS011;22448;51.298;6.430;2023-02-15T10:53:01;47.88;;;25.15;;
35969;SDS011;22448;51.298;6.430;2023-02-15T10:58:42;45.75;;;25.25;;
35969;SDS011;22448;51.298;6.430;2023-02-15T11:06:55;43.25;;;24.48;;
35969;SDS011;22448;51.298;6.430;2023-02-15T11:09:29;41.95;;;24.17;;
35969;SDS011;22448;51.298;6.430;2023-02-15T11:12:04;46.20;;;23.90;;
35969;SDS011;22448;51.298;6.430;2023-02-15T11:17:53;44.03;;;23.05;;
35969;SDS011;22448;51.298;6.430;2023-02-15T11:20:27;48.33;;;22.75;;
35969;SDS011;22448;51.298;6.430;2023-02-15T11:23:14;43.88;;;25.02;;
35969;SDS011;22448;51.298;6.430;2023-02-15T11:25:46;45.33;;;23.98;;
35969;SDS011;22448;51.298;6.430;2023-02-15T11:28:30;39.53;;;23.85;;
35969;SDS011;22448;51.298;6.430;2023-02-15T11:31:02;42.08;;;23.75;;
35969;SDS011;22448;51.298;6.430;2023-02-15T11:34:00;37.10;;;22.77;;
35969;SDS011;22448;51.298;6.430;2023-02-15T11:36:35;38.85;;;23.05;;
35969;SDS011;22448;51.298;6.430;2023-02-15T11:39:10;36.92;;;22.13;;
35969;SDS011;22448;51.298;6.430;2023-02-15T11:41:41;38.60;;;22.75;;
35969;SDS011;22448;51.298;6.430;2023-02-15T11:44:18;38.75;;;22.83;;
35969;SDS011;22448;51.298;6.430;2023-02-15T11:47:03;38.42;;;23.17;;
35969;SDS011;22448;51.298;6.430;2023-02-15T11:49:34;41.75;;;23.73;;
35969;SDS011;22448;51.298;6.430;2023-02-15T11:52:03;38.15;;;22.42;;
35969;SDS011;22448;51.298;6.430;2023-02-15T11:54:33;44.25;;;22.83;;
35969;SDS011;22448;51.298;6.430;2023-02-15T11:57:05;40.72;;;23.25;;
35969;SDS011;22448;51.298;6.430;2023-02-15T11:59:50;36.90;;;22.45;;
35969;SDS011;22448;51.298;6.430;2023-02-15T12:02:33;41.22;;;22.95;;
35969;SDS011;22448;51.298;6.430;2023-02-15T12:05:05;41.08;;;23.55;;
35969;SDS011;22448;51.298;6.430;2023-02-15T12:12:40;40.28;;;23.52;;
35969;SDS011;22448;51.298;6.430;2023-02-15T12:15:08;36.20;;;23.10;;
35969;SDS011;22448;51.298;6.430;2023-02-15T12:17:41;38.83;;;22.92;;
35969;SDS011;22448;51.298;6.430;2023-02-15T12:22:46;41.20;;;21.73;;
35969;SDS011;22448;51.298;6.430;2023-02-15T12:25:20;41.58;;;23.35;;
35969;SDS011;22448;51.298;6.430;2023-02-15T12:27:49;34.05;;;20.65;;
35969;SDS011;22448;51.298;6.430;2023-02-15T12:32:54;38.28;;;23.23;;
35969;SDS011;22448;51.298;6.430;2023-02-15T12:35:31;38.58;;;22.65;;
35969;SDS011;22448;51.298;6.430;2023-02-15T12:38:05;42.70;;;21.23;;
35969;SDS011;22448;51.298;6.430;2023-02-15T12:41:23;36.95;;;22.10;;
35969;SDS011;22448;51.298;6.430;2023-02-15T12:44:02;44.90;;;23.05;;
35969;SDS011;22448;51.298;6.430;2023-02-15T12:46:41;38.97;;;22.73;;
35969;SDS011;22448;51.298;6.430;2023-02-15T12:49:17;37.58;;;20.85;;
35969;SDS011;22448;51.298;6.430;2023-02-15T12:51:47;41.45;;;21.90;;
35969;SDS011;22448;51.298;6.430;2023-02-15T12:54:17;37.58;;;22.90;;
35969;SDS011;22448;51.298;6.430;2023-02-15T13:04:56;36.40;;;21.75;;
35969;SDS011;22448;51.298;6.430;2023-02-15T13:07:30;44.30;;;22.85;;
35969;SDS011;22448;51.298;6.430;2023-02-15T13:09:58;32.70;;;21.45;;
35969;SDS011;22448;51.298;6.430;2023-02-15T13:12:26;36.33;;;22.65;;
35969;SDS011;22448;51.298;6.430;2023-02-15T13:14:59;39.13;;;20.70;;
35969;SDS011;22448;51.298;6.430;2023-02-15T13:17:31;40.40;;;20.90;;
35969;SDS011;22448;51.298;6.430;2023-02-15T13:20:02;35.22;;;21.38;;
35969;SDS011;22448;51.298;6.430;2023-02-15T13:22:41;41.35;;;22.77;;
35969;SDS011;22448;51.298;6.430;2023-02-15T13:25:17;35.25;;;22.23;;
35969;SDS011;22448;51.298;6.430;2023-02-15T13:27:48;36.50;;;22.55;;
35969;SDS011;22448;51.298;6.430;2023-02-15T13:33:00;41.50;;;21.23;;
35969;SDS011;22448;51.298;6.430;2023-02-15T13:35:35;39.47;;;22.45;;
35969;SDS011;22448;51.298;6.430;2023-02-15T13:38:22;34.67;;;20.77;;
35969;SDS011;22448;51.298;6.430;2023-02-15T13:41:21;37.33;;;21.27;;
35969;SDS011;22448;51.298;6.430;2023-02-15T13:52:26;35.55;;;20.48;;
35969;SDS011;22448;51.298;6.430;2023-02-15T13:55:08;39.88;;;21.40;;
35969;SDS011;22448;51.298;6.430;2023-02-15T14:00:54;36.10;;;20.10;;
35969;SDS011;22448;51.298;6.430;2023-02-15T14:06:48;34.72;;;20.15;;
35969;SDS011;22448;51.298;6.430;2023-02-15T14:12:38;35.97;;;20.20;;
35969;SDS011;22448;51.298;6.430;2023-02-15T14:18:10;34.72;;;20.02;;
35969;SDS011;22448;51.298;6.430;2023-02-15T14:21:09;39.67;;;20.65;;
35969;SDS011;22448;51.298;6.430;2023-02-15T14:26:33;40.72;;;19.80;;
35969;SDS011;22448;51.298;6.430;2023-02-15T14:30:09;32.95;;;19.70;;
35969;SDS011;22448;51.298;6.430;2023-02-15T14:32:04;32.58;;;19.75;;
35969;SDS011;22448;51.298;6.430;2023-02-15T14:34:56;37.53;;;19.92;;
35969;SDS011;22448;51.298;6.430;2023-02-15T14:37:42;35.58;;;19.90;;
35969;SDS011;22448;51.298;6.430;2023-02-15T14:46:16;33.50;;;19.65;;
35969;SDS011;22448;51.298;6.430;2023-02-15T14:48:46;41.20;;;19.77;;
35969;SDS011;22448;51.298;6.430;2023-02-15T14:54:10;31.98;;;19.42;;
35969;SDS011;22448;51.298;6.430;2023-02-15T15:00:26;36.90;;;20.92;;
35969;SDS011;22448;51.298;6.430;2023-02-15T15:02:25;35.25;;;22.33;;
35969;SDS011;22448;51.298;6.430;2023-02-15T15:05:14;38.10;;;23.00;;
35969;SDS011;22448;51.298;6.430;2023-02-15T15:07:59;38.67;;;21.57;;
35969;SDS011;22448;51.298;6.430;2023-02-15T15:10:34;37.85;;;22.23;;
35969;SDS011;22448;51.298;6.430;2023-02-15T15:18:52;40.63;;;20.17;;
35969;SDS011;22448;51.298;6.430;2023-02-15T15:24:45;38.90;;;20.80;;
35969;SDS011;22448;51.298;6.430;2023-02-15T15:35:33;35.47;;;20.08;;
35969;SDS011;22448;51.298;6.430;2023-02-15T15:49:10;34.85;;;21.05;;
35969;SDS011;22448;51.298;6.430;2023-02-15T15:51:45;37.00;;;20.38;;
35969;SDS011;22448;51.298;6.430;2023-02-15T15:54:17;41.30;;;19.98;;
35969;SDS011;22448;51.298;6.430;2023-02-15T15:56:49;41.80;;;21.67;;
35969;SDS011;22448;51.298;6.430;2023-02-15T15:59:22;36.38;;;21.10;;
35969;SDS011;22448;51.298;6.430;2023-02-15T16:01:51;35.65;;;20.95;;
35969;SDS011;22448;51.298;6.430;2023-02-15T16:04:26;33.60;;;20.15;;
35969;SDS011;22448;51.298;6.430;2023-02-15T16:06:56;40.10;;;20.67;;
35969;SDS011;22448;51.298;6.430;2023-02-15T16:09:26;37.00;;;20.00;;
35969;SDS011;22448;51.298;6.430;2023-02-15T16:11:57;40.80;;;20.48;;
35969;SDS011;22448;51.298;6.430;2023-02-15T16:17:06;39.38;;;23.10;;
35969;SDS011;22448;51.298;6.430;2023-02-15T16:19:40;40.72;;;23.75;;
35969;SDS011;22448;51.298;6.430;2023-02-15T16:22:10;45.65;;;23.33;;
35969;SDS011;22448;51.298;6.430;2023-02-15T16:24:48;41.13;;;24.13;;
35969;SDS011;22448;51.298;6.430;2023-02-15T16:27:42;43.47;;;25.27;;
35969;SDS011;22448;51.298;6.430;2023-02-15T16:32:52;41.75;;;25.13;;
35969;SDS011;22448;51.298;6.430;2023-02-15T16:35:34;41.42;;;24.20;;
35969;SDS011;22448;51.298;6.430;2023-02-15T16:38:03;38.83;;;24.15;;
35969;SDS011;22448;51.298;6.430;2023-02-15T16:40:36;38.35;;;21.92;;
35969;SDS011;22448;51.298;6.430;2023-02-15T16:43:21;44.22;;;24.00;;
35969;SDS011;22448;51.298;6.430;2023-02-15T16:48:23;49.83;;;23.92;;
35969;SDS011;22448;51.298;6.430;2023-02-15T16:50:54;61.28;;;30.58;;
35969;SDS011;22448;51.298;6.430;2023-02-15T16:53:24;54.38;;;29.33;;
35969;SDS011;22448;51.298;6.430;2023-02-15T16:55:56;43.63;;;25.75;;
35969;SDS011;22448;51.298;6.430;2023-02-15T16:58:36;51.60;;;25.00;;
35969;SDS011;22448;51.298;6.430;2023-02-15T17:01:07;45.65;;;24.80;;
35969;SDS011;22448;51.298;6.430;2023-02-15T17:03:37;41.17;;;24.50;;
35969;SDS011;22448;51.298;6.430;2023-02-15T17:06:23;42.95;;;23.20;;
35969;SDS011;22448;51.298;6.430;2023-02-15T17:08:52;37.08;;;22.45;;
35969;SDS011;22448;51.298;6.430;2023-02-15T17:12:02;45.17;;;23.63;;
35969;SDS011;22448;51.298;6.430;2023-02-15T17:17:00;38.25;;;21.52;;
35969;SDS011;22448;51.298;6.430;2023-02-15T17:19:40;43.70;;;21.83;;
35969;SDS011;22448;51.298;6.430;2023-02-15T17:22:20;53.27;;;26.40;;
35969;SDS011;22448;51.298;6.430;2023-02-15T17:24:49;48.00;;;26.50;;
35969;SDS011;22448;51.298;6.430;2023-02-15T17:27:24;61.05;;;29.20;;
35969;SDS011;22448;51.298;6.430;2023-02-15T17:29:57;44.90;;;23.67;;
35969;SDS011;22448;51.298;6.430;2023-02-15T17:32:27;45.55;;;23.73;;
35969;SDS011;22448;51.298;6.430;2023-02-15T17:40:10;52.53;;;26.73;;
35969;SDS011;22448;51.298;6.430;2023-02-15T17:42:49;44.15;;;25.77;;
35969;SDS011;22448;51.298;6.430;2023-02-15T17:45:15;55.78;;;24.45;;
35969;SDS011;22448;51.298;6.430;2023-02-15T17:47:43;48.25;;;26.17;;
35969;SDS011;22448;51.298;6.430;2023-02-15T17:50:17;55.50;;;27.77;;
35969;SDS011;22448;51.298;6.430;2023-02-15T17:52:50;45.65;;;25.67;;
35969;SDS011;22448;51.298;6.430;2023-02-15T17:55:18;43.10;;;22.88;;